ADDS METAR Data INFO
IDs: Format: Raw Decoded Include TAF

Data at: 0220 UTC 14 Dec 2017

KMCC 140210Z AUTO 00000KT 10SM CLR 09/03 A3008 RMK AO2
KMCC 140150Z AUTO 00000KT 10SM CLR 09/03 A3009 RMK AO2
KMCC 140130Z AUTO 00000KT 10SM CLR 09/03 A3009 RMK AO2
KMCC 140110Z AUTO 00000KT 10SM CLR 11/03 A3009 RMK AO2
KMCC 140050Z AUTO 27003KT 10SM CLR 13/03 A3008 RMK AO2
KMCC 140030Z AUTO 00000KT 10SM CLR 13/03 A3009 RMK AO2
KMCC 140010Z AUTO 00000KT 10SM CLR 14/04 A3009 RMK AO2
KMCC 132350Z AUTO 00000KT 10SM CLR 14/03 A3009 RMK AO2
KMCC 132330Z AUTO 00000KT 10SM CLR 14/03 A3009 RMK AO2
KMCC 132310Z AUTO 34003KT 10SM CLR 14/03 A3010 RMK AO2
KMCC 132250Z AUTO 00000KT 10SM CLR 14/04 A3010 RMK AO2
KMCC 132230Z AUTO 00000KT 9SM CLR 14/04 A3010 RMK AO2
KMCC 132210Z AUTO 29004KT 8SM CLR 14/04 A3010 RMK AO2
KMCC 132150Z AUTO 31003KT 10SM CLR 14/04 A3011 RMK AO2
KMCC 132130Z AUTO 28004KT 10SM CLR 14/04 A3012 RMK AO2
KMCC 132110Z AUTO 30004KT 10SM CLR 13/04 A3012 RMK AO2
KMCC 132050Z AUTO 00000KT 10SM CLR 13/04 A3013 RMK AO2
KMCC 132030Z AUTO 34004KT 10SM CLR 12/04 A3015 RMK AO2
KMCC 132010Z AUTO 00000KT 10SM CLR 11/04 A3016 RMK AO2
KMCC 131950Z AUTO 33004KT 10SM CLR 11/04 A3018 RMK AO2
KMCC 131930Z AUTO 32004KT 10SM CLR 10/04 A3019 RMK AO2
KMCC 131910Z AUTO 32003KT 8SM CLR 10/05 A3020 RMK AO2
KMCC 131850Z AUTO 32003KT 10SM CLR 09/05 A3021 RMK AO2
KMCC 131830Z AUTO 00000KT 9SM CLR 08/04 A3022 RMK AO2
KMCC 131810Z AUTO 31004KT 8SM CLR 07/05 A3023 RMK AO2
KMCC 131750Z AUTO 33004KT 10SM CLR 06/04 A3023 RMK AO2
KMCC 131730Z AUTO 33003KT 10SM CLR 05/04 A3023 RMK AO2
KMCC 131710Z AUTO 32003KT 8SM CLR 04/04 A3023 RMK AO2
KMCC 131650Z AUTO 32003KT 7SM CLR 03/03 A3023 RMK AO2
KMCC 131630Z AUTO 00000KT 7SM CLR 02/02 A3022 RMK AO2
KMCC 131610Z AUTO 00000KT 8SM CLR 01/01 A3022 RMK AO2
KMCC 131550Z AUTO 00000KT 3SM BR CLR 00/00 A3021 RMK AO2
KMCC 131530Z AUTO 00000KT 5SM BR FEW044 00/00 A3021 RMK AO2
KMCC 131510Z AUTO 00000KT 6SM BR BKN044 00/00 A3022 RMK AO2
KMCC 131450Z AUTO 00000KT 8SM OVC042 01/01 A3022 RMK AO2
KMCC 131430Z AUTO 00000KT 10SM OVC044 02/02 A3021 RMK AO2
KMCC 131410Z AUTO 00000KT 10SM OVC044 01/01 A3021 RMK AO2
KMCC 131350Z AUTO 03003KT 8SM OVC044 01/01 A3022 RMK AO2
KMCC 131330Z AUTO 36003KT 3SM BR BKN044 00/M01 A3023 RMK AO2
KMCC 131310Z AUTO 33004KT 5SM BR FEW023 00/00 A3022 RMK AO2
KMCC 131250Z AUTO 00000KT 7SM CLR 00/00 A3021 RMK AO2
KMCC 131230Z AUTO 32003KT 7SM 00/00 A3021 RMK AO2
KMCC 131210Z AUTO 00000KT 7SM 01/00 A3021 RMK AO2
KMCC 131150Z AUTO 28003KT 8SM CLR 02/01 A3021 RMK AO2
KMCC 131130Z AUTO 00000KT 8SM CLR 02/01 A3021 RMK AO2
KMCC 131110Z AUTO 00000KT 10SM CLR 03/01 A3021 RMK AO2
KMCC 131050Z AUTO 00000KT 9SM CLR 02/00 A3022 RMK AO2
KMCC 131030Z AUTO 00000KT 9SM CLR 02/01 A3022 RMK AO2
KMCC 131010Z AUTO 00000KT 9SM 03/02 A3022 RMK AO2
KMCC 130950Z AUTO 00000KT 10SM CLR 04/02 A3021 RMK AO2
KMCC 130930Z AUTO 00000KT 10SM CLR 04/02 A3022 RMK AO2
KMCC 130910Z AUTO 00000KT 10SM 04/02 A3022 RMK AO2
KMCC 130850Z AUTO 12003KT 10SM 04/02 A3022 RMK AO2
KMCC 130830Z AUTO 11005KT 10SM 03/01 A3022 RMK AO2
KMCC 130810Z AUTO 11004KT 10SM CLR 04/02 A3022 RMK AO2
KMCC 130750Z AUTO 13004KT 10SM CLR 04/02 A3022 RMK AO2
KMCC 130730Z AUTO 00000KT 10SM CLR 04/02 A3022 RMK AO2
KMCC 130710Z AUTO 00000KT 10SM CLR 05/03 A3022 RMK AO2
KMCC 130650Z AUTO 00000KT 10SM CLR 05/03 A3022 RMK AO2
KMCC 130630Z AUTO 16003KT 10SM CLR 05/02 A3022 RMK AO2
KMCC 130610Z AUTO 00000KT 10SM CLR 05/03 A3021 RMK AO2
KMCC 130550Z AUTO 12003KT 10SM CLR 05/03 A3021 RMK AO2
KMCC 130530Z AUTO 00000KT 10SM CLR 05/02 A3021 RMK AO2
KMCC 130510Z AUTO 12003KT 10SM CLR 06/03 A3021 RMK AO2
KMCC 130450Z AUTO 00000KT 10SM CLR 07/02 A3021 RMK AO2
KMCC 130430Z AUTO 00000KT 10SM CLR 07/02 A3021 RMK AO2
KMCC 130410Z AUTO 15003KT 10SM CLR 07/02 A3020 RMK AO2
KMCC 130350Z AUTO 11003KT 10SM CLR 07/02 A3020 RMK AO2
KMCC 130330Z AUTO 00000KT 10SM CLR 06/02 A3021 RMK AO2
KMCC 130310Z AUTO 00000KT 10SM CLR 05/02 A3021 RMK AO2
KMCC 130250Z AUTO 00000KT 10SM 07/02 A3021 RMK AO2
KMCC 130230Z AUTO 01003KT 10SM CLR 07/02 A3021 RMK AO2
KMCC 130210Z AUTO 36003KT 10SM CLR 07/02 A3021 RMK AO2
KMCC 130150Z AUTO 00000KT 10SM CLR 10/02 A3021 RMK AO2
KMCC 130130Z AUTO 00000KT 9SM CLR 09/02 A3021 RMK AO2
KMCC 130110Z AUTO 00000KT 10SM CLR 10/02 A3022 RMK AO2
KMCC 130050Z AUTO 00000KT 10SM CLR 11/02 A3022 RMK AO2
KMCC 130030Z AUTO 00000KT 10SM CLR 13/01 A3022 RMK AO2
KMCC 130010Z AUTO 32003KT 10SM CLR 13/02 A3022 RMK AO2
KMCC 122350Z AUTO 32003KT 10SM CLR 14/02 A3023 RMK AO2
KMCC 122330Z AUTO 28003KT 10SM CLR 15/02 A3023 RMK AO2
KMCC 122310Z AUTO 00000KT 10SM CLR 15/03 A3023 RMK AO2
KMCC 122250Z AUTO 28003KT 10SM CLR 15/03 A3024 RMK AO2
KMCC 122230Z AUTO 00000KT 10SM CLR 15/04 A3024 RMK AO2
KMCC 122210Z AUTO 30004KT 10SM CLR 15/04 A3025 RMK AO2
KMCC 122150Z AUTO 34003KT 10SM CLR 14/04 A3026 RMK AO2
KMCC 122130Z AUTO 00000KT 10SM CLR 14/03 A3027 RMK AO2
KMCC 122110Z AUTO 00000KT 10SM CLR 14/04 A3028 RMK AO2
KMCC 122050Z AUTO 00000KT 10SM CLR 14/04 A3029 RMK AO2
KMCC 122030Z AUTO 00000KT 10SM CLR 13/04 A3031 RMK AO2
KMCC 122010Z AUTO 00000KT 10SM CLR 13/04 A3032 RMK AO2
KMCC 121950Z AUTO 00000KT 10SM CLR 12/05 A3033 RMK AO2
KMCC 121930Z AUTO 00000KT 10SM CLR 12/05 A3034 RMK AO2
KMCC 121910Z AUTO 00000KT 10SM CLR 10/05 A3035 RMK AO2
KMCC 121850Z AUTO 00000KT 9SM CLR 10/05 A3036 RMK AO2
KMCC 121830Z AUTO 00000KT 8SM CLR 09/05 A3037 RMK AO2
KMCC 121810Z AUTO 00000KT 10SM CLR 08/04 A3038 RMK AO2
KMCC 121750Z AUTO 00000KT 7SM CLR 08/04 A3039 RMK AO2
KMCC 121730Z AUTO 00000KT 10SM CLR 07/04 A3039 RMK AO2
KMCC 121710Z AUTO 00000KT 10SM CLR 05/03 A3038 RMK AO2
KMCC 121650Z AUTO 00000KT 8SM CLR 04/03 A3038 RMK AO2
KMCC 121630Z AUTO 00000KT 9SM CLR 03/02 A3037 RMK AO2
KMCC 121610Z AUTO 01003KT 8SM 02/00 A3037 RMK AO2
KMCC 121550Z AUTO 8SM RMK AO2
KMCC 121530Z AUTO 00000KT 9SM CLR 00/00 A3037 RMK AO2
KMCC 121510Z AUTO 00000KT 7SM CLR 00/00 A3037 RMK AO2
KMCC 121450Z AUTO 00000KT 7SM CLR 00/00 A3036 RMK AO2
KMCC 121430Z AUTO 00000KT 7SM CLR 00/00 A3036 RMK AO2